Time;durP1;ratioP1;P1;durP2;ratioP2;P2;SDS_P1;SDS_P2;PMS_P1;PMS_P2;Temp;Humidity;BMP_temperature;BMP_pressure;BME280_temperature;BME280_humidity;BME280_pressure;Samples;Min_cycle;Max_cycle;Signal;HPM_P1;HPM_P2
2023/03/23 00:01:20;;;;;;;;;;;;;;;8.43;65.56;96835.84;108858;1251;102612;-75
2023/03/23 00:03:49;;;;;;;;;;;;;;;8.43;65.35;96836.25;108835;1250;101630;-76
2023/03/23 00:06:18;;;;;;;;;;;;;;;8.41;65.41;96834.97;108601;1257;99675;-76
2023/03/23 00:08:49;;;;;;;;;;;;;;;8.38;65.40;96835.46;108766;1251;95667;-75
2023/03/23 00:11:19;;;;;;;;;;;;;;;8.38;65.51;96836.05;108694;1254;95610;-75
2023/03/23 00:13:50;;;;;;;;;;;;;;;8.37;65.45;96835.63;108822;1251;103932;-75
2023/03/23 00:16:28;;;;;;;;;;;;;;;8.36;65.40;96837.08;108853;1251;101617;-76
2023/03/23 00:18:58;;;;;;;;;;;;;;;8.34;65.45;96834.33;108822;1251;99976;-75
2023/03/23 00:21:33;;;;;;;;;;;;;;;8.28;65.43;96838.12;108786;1251;95766;-74
2023/03/23 00:24:07;;;;;;;;;;;;;;;8.20;65.51;96839.17;108814;1251;95618;-77
2023/03/23 00:26:39;;;;;;;;;;;;;;;8.13;65.72;96837.55;108849;1251;103496;-75
2023/03/23 00:29:09;;;;;;;;;;;;;;;8.06;65.68;96837.98;108835;1251;100920;-76
2023/03/23 00:31:37;;;;;;;;;;;;;;;8.02;65.76;96836.84;108799;1251;99946;-76
2023/03/23 00:34:06;;;;;;;;;;;;;;;7.96;65.95;96835.98;108828;1251;95589;-76
2023/03/23 00:36:34;;;;;;;;;;;;;;;7.92;65.93;96832.85;108607;1251;95601;-76
2023/03/23 00:39:04;;;;;;;;;;;;;;;7.85;66.00;96832.02;108822;1251;103837;-74
2023/03/23 00:41:32;;;;;;;;;;;;;;;7.75;66.03;96833.19;108771;1256;101534;-75
2023/03/23 00:44:01;;;;;;;;;;;;;;;7.68;66.29;96830.38;108804;1251;100416;-76
2023/03/23 00:46:29;;;;;;;;;;;;;;;7.63;66.35;96826.69;108809;1255;95642;-75
2023/03/23 00:48:58;;;;;;;;;;;;;;;7.60;66.53;96827.12;108818;1251;95773;-75
2023/03/23 00:51:26;;;;;;;;;;;;;;;7.58;66.61;96818.08;108743;1251;103701;-75
2023/03/23 00:53:54;;;;;;;;;;;;;;;7.54;66.56;96820.26;108871;1251;101337;-75
2023/03/23 00:56:23;;;;;;;;;;;;;;;7.49;66.82;96821.65;108807;1252;100054;-75
2023/03/23 00:58:51;;;;;;;;;;;;;;;7.42;67.00;96812.56;108786;1251;95598;-75
2023/03/23 01:01:19;;;;;;;;;;;;;;;7.38;67.09;96812.88;108618;1251;95640;-74
2023/03/23 01:03:47;;;;;;;;;;;;;;;7.34;67.02;96810.58;108818;1251;103714;-75
2023/03/23 01:06:15;;;;;;;;;;;;;;;7.30;67.23;96809.91;108832;1251;101578;-75
2023/03/23 01:08:46;;;;;;;;;;;;;;;7.29;67.43;96810.77;108762;1251;100108;-75
2023/03/23 01:11:15;;;;;;;;;;;;;;;7.25;67.29;96805.52;108774;1251;95810;-76
2023/03/23 01:13:43;;;;;;;;;;;;;;;7.18;67.43;96802.52;108808;1251;95767;-75
2023/03/23 01:16:11;;;;;;;;;;;;;;;7.14;67.54;96799.52;108829;1251;103591;-75
2023/03/23 01:18:40;;;;;;;;;;;;;;;7.05;67.56;96798.56;108795;1251;101556;-74
2023/03/23 01:21:11;;;;;;;;;;;;;;;6.96;67.65;96800.73;108842;1251;100035;-74
2023/03/23 01:23:40;;;;;;;;;;;;;;;6.88;67.93;96797.41;108790;1251;95898;-75
2023/03/23 01:26:10;;;;;;;;;;;;;;;6.84;68.12;96797.41;108819;1251;95801;-75
2023/03/23 01:28:38;;;;;;;;;;;;;;;6.82;68.21;96799.27;108816;1251;103241;-76
2023/03/23 01:31:08;;;;;;;;;;;;;;;6.79;68.27;96801.64;108784;1251;100068;-76
2023/03/23 01:33:36;;;;;;;;;;;;;;;6.72;68.33;96796.02;108620;1251;99858;-75
2023/03/23 01:36:05;;;;;;;;;;;;;;;6.66;68.48;96797.42;108812;1251;95611;-75
2023/03/23 01:38:34;;;;;;;;;;;;;;;6.66;68.65;96794.63;108795;1251;96455;-75
2023/03/23 01:41:03;;;;;;;;;;;;;;;6.68;68.71;96800.83;108789;1251;104034;-75
2023/03/23 01:43:31;;;;;;;;;;;;;;;6.68;68.60;96800.16;108822;1251;101329;-75
2023/03/23 01:45:59;;;;;;;;;;;;;;;6.63;68.69;96796.45;108830;1251;100016;-77
2023/03/23 01:48:30;;;;;;;;;;;;;;;6.60;68.77;96800.67;108770;1251;95585;-77
2023/03/23 01:51:01;;;;;;;;;;;;;;;6.58;68.71;96798.98;108868;1251;95602;-75
2023/03/23 01:53:37;;;;;;;;;;;;;;;6.54;68.78;96797.09;108840;1251;103595;-75
2023/03/23 01:56:07;;;;;;;;;;;;;;;6.53;68.99;96799.08;108833;1251;101435;-75
2023/03/23 01:58:36;;;;;;;;;;;;;;;6.50;69.08;96793.59;108552;1252;100839;-75
2023/03/23 02:01:06;;;;;;;;;;;;;;;6.48;69.09;96793.09;108801;1251;95533;-75
2023/03/23 02:03:36;;;;;;;;;;;;;;;6.45;69.28;96794.55;108817;1251;95714;-76
2023/03/23 02:06:04;;;;;;;;;;;;;;;6.44;69.30;96793.94;108834;1251;103574;-75
2023/03/23 02:08:33;;;;;;;;;;;;;;;6.46;69.38;96794.47;108802;1251;101695;-75
2023/03/23 02:11:01;;;;;;;;;;;;;;;6.44;69.52;96788.43;108793;1251;100165;-74
2023/03/23 02:13:29;;;;;;;;;;;;;;;6.43;69.54;96791.40;108764;1251;95737;-75
2023/03/23 02:16:03;;;;;;;;;;;;;;;6.45;69.52;96792.98;108679;1251;95883;-75
2023/03/23 02:18:51;;;;;;;;;;;;;;;6.44;69.58;96799.16;108822;1251;103706;-75
2023/03/23 02:21:25;;;;;;;;;;;;;;;6.43;69.56;96796.67;108314;1258;101351;-75
2023/03/23 02:23:53;;;;;;;;;;;;;;;6.42;69.55;96796.71;108261;1257;99983;-75
2023/03/23 02:26:36;;;;;;;;;;;;;;;6.41;69.59;96796.71;108263;1257;95715;-76
2023/03/23 02:29:20;;;;;;;;;;;;;;;6.38;69.68;96797.13;108283;1257;96018;-75
2023/03/23 02:32:07;;;;;;;;;;;;;;;6.34;69.73;96797.84;108258;1257;102282;-74
2023/03/23 02:34:37;;;;;;;;;;;;;;;6.28;69.85;96800.91;108321;1257;100520;-76
2023/03/23 02:37:31;;;;;;;;;;;;;;;6.24;69.87;96799.00;108289;1257;100107;-75
2023/03/23 02:40:11;;;;;;;;;;;;;;;6.22;70.05;96800.10;108006;1263;95941;-76
2023/03/23 02:42:41;;;;;;;;;;;;;;;6.17;70.19;96798.30;108035;1263;95668;-76
2023/03/23 02:45:10;;;;;;;;;;;;;;;6.13;70.29;96799.73;108036;1262;103816;-76
2023/03/23 02:47:39;;;;;;;;;;;;;;;6.10;70.25;96796.01;108025;1263;101319;-75
2023/03/23 02:50:10;;;;;;;;;;;;;;;6.07;70.40;96797.66;107983;1264;100164;-76
2023/03/23 02:52:39;;;;;;;;;;;;;;;6.07;70.42;96800.95;107999;1262;96198;-76
2023/03/23 02:55:11;;;;;;;;;;;;;;;6.08;70.35;96806.99;107861;1262;95758;-75
2023/03/23 02:57:39;;;;;;;;;;;;;;;6.09;70.32;96806.25;107942;1263;102929;-74
2023/03/23 03:00:10;;;;;;;;;;;;;;;6.08;70.26;96803.69;108278;1257;101355;-75
2023/03/23 03:02:41;;;;;;;;;;;;;;;6.07;70.22;96803.31;108000;1257;99241;-75
2023/03/23 03:05:27;;;;;;;;;;;;;;;6.03;70.26;96803.55;108173;1257;95607;-75
2023/03/23 03:08:17;;;;;;;;;;;;;;;6.02;70.30;96798.40;108295;1257;95654;-75
2023/03/23 03:10:48;;;;;;;;;;;;;;;5.99;70.33;96796.40;108168;1257;103337;-77
2023/03/23 03:13:45;;;;;;;;;;;;;;;5.96;70.42;96797.40;108315;1257;101778;-75
2023/03/23 03:16:26;;;;;;;;;;;;;;;5.93;70.47;96794.69;108091;1257;99259;-75
2023/03/23 03:19:05;;;;;;;;;;;;;;;5.93;70.64;96798.11;108375;1257;96127;-75
2023/03/23 03:21:38;;;;;;;;;;;;;;;5.93;70.76;96792.18;108185;1257;95988;-75
2023/03/23 03:24:10;;;;;;;;;;;;;;;5.93;70.75;96791.48;108418;1256;103709;-75
2023/03/23 03:26:45;;;;;;;;;;;;;;;5.90;70.79;96791.56;108202;1260;101196;-75
2023/03/23 03:29:13;;;;;;;;;;;;;;;5.89;71.10;96784.59;108183;1256;107542;-76
2023/03/23 03:31:45;;;;;;;;;;;;;;;5.94;71.28;96779.66;108390;1256;95906;-76
2023/03/23 03:34:17;;;;;;;;;;;;;;;6.00;71.40;96780.45;108208;1260;95703;-74
2023/03/23 03:36:46;;;;;;;;;;;;;;;6.04;71.40;96782.70;108401;1256;103527;-75
2023/03/23 03:39:17;;;;;;;;;;;;;;;6.06;71.25;96782.23;108443;1256;101472;-75
2023/03/23 03:41:45;;;;;;;;;;;;;;;6.08;71.36;96776.03;108372;1257;100166;-75
2023/03/23 03:44:13;;;;;;;;;;;;;;;6.08;71.34;96770.47;108357;1256;96012;-75
2023/03/23 03:46:41;;;;;;;;;;;;;;;6.10;71.54;96772.54;108400;1256;95809;-74
2023/03/23 03:49:10;;;;;;;;;;;;;;;6.11;71.40;96771.31;108228;1257;103777;-75
2023/03/23 03:51:38;;;;;;;;;;;;;;;6.09;71.43;96771.79;108431;1257;101420;-75
2023/03/23 03:54:06;;;;;;;;;;;;;;;6.08;71.45;96773.92;108770;1251;100160;-77
2023/03/23 03:56:36;;;;;;;;;;;;;;;6.12;71.42;96766.41;108784;1251;95823;-76
2023/03/23 03:59:04;;;;;;;;;;;;;;;6.14;71.50;96767.21;108829;1251;95740;-76
2023/03/23 04:01:32;;;;;;;;;;;;;;;6.13;71.41;96764.32;108816;1251;103785;-75
2023/03/23 04:04:00;;;;;;;;;;;;;;;6.09;71.42;96762.98;108852;1251;101502;-75
2023/03/23 04:06:28;;;;;;;;;;;;;;;6.04;71.51;96762.58;108597;1251;100258;-77
2023/03/23 04:08:58;;;;;;;;;;;;;;;6.00;71.66;96761.29;108787;1251;95550;-76
2023/03/23 04:11:27;;;;;;;;;;;;;;;6.00;71.70;96757.78;108828;1251;96453;-75
2023/03/23 04:13:55;;;;;;;;;;;;;;;5.97;71.73;96756.02;108814;1251;103249;-76
2023/03/23 04:16:23;;;;;;;;;;;;;;;5.97;71.81;96761.02;108854;1251;101505;-75
2023/03/23 04:18:51;;;;;;;;;;;;;;;5.98;71.85;96757.68;108806;1251;99959;-76
2023/03/23 04:21:19;;;;;;;;;;;;;;;5.95;71.91;96759.67;108609;1253;95959;-75
2023/03/23 04:23:47;;;;;;;;;;;;;;;5.93;71.87;96758.67;108796;1251;95631;-76
2023/03/23 04:26:15;;;;;;;;;;;;;;;5.94;72.00;96761.07;108815;1251;103686;-76
2023/03/23 04:28:43;;;;;;;;;;;;;;;5.96;72.02;96760.22;108782;1251;109730;-75
2023/03/23 04:31:12;;;;;;;;;;;;;;;5.95;71.93;96757.63;108802;1251;98998;-74
2023/03/23 04:33:41;;;;;;;;;;;;;;;5.94;72.06;96755.50;108828;1251;95546;-75
2023/03/23 04:36:09;;;;;;;;;;;;;;;5.95;72.13;96755.35;108781;1252;95692;-76
2023/03/23 04:38:37;;;;;;;;;;;;;;;5.98;72.23;96754.27;108834;1250;103443;-76
2023/03/23 04:41:05;;;;;;;;;;;;;;;5.98;72.07;96755.09;108846;1251;101404;-75
2023/03/23 04:43:41;;;;;;;;;;;;;;;5.97;72.17;96759.98;108882;1251;99014;-75
2023/03/23 04:46:09;;;;;;;;;;;;;;;5.93;72.09;96759.39;108846;1251;95497;-75
2023/03/23 04:48:39;;;;;;;;;;;;;;;5.91;72.31;96760.17;108904;1251;95603;-75
2023/03/23 04:51:07;;;;;;;;;;;;;;;5.91;72.43;96763.64;108945;1251;103800;-74
2023/03/23 04:53:35;;;;;;;;;;;;;;;5.91;72.39;96766.06;108936;1251;101682;-75
2023/03/23 04:56:03;;;;;;;;;;;;;;;5.95;72.53;96763.88;108855;1251;99866;-74
2023/03/23 04:58:33;;;;;;;;;;;;;;;6.04;72.74;96764.52;108909;1251;95559;-75
2023/03/23 05:01:02;;;;;;;;;;;;;;;6.16;72.85;96759.98;108897;1251;95569;-74
2023/03/23 05:03:30;;;;;;;;;;;;;;;6.26;72.86;96761.03;108959;1251;103355;-76
2023/03/23 05:05:58;;;;;;;;;;;;;;;6.37;72.93;96760.42;108867;1251;101551;-76
2023/03/23 05:08:26;;;;;;;;;;;;;;;6.47;72.88;96762.27;108880;1251;99876;-76
2023/03/23 05:10:56;;;;;;;;;;;;;;;6.57;72.81;96763.70;108870;1251;95667;-77
2023/03/23 05:13:24;;;;;;;;;;;;;;;6.68;72.69;96758.78;108913;1251;95647;-74
2023/03/23 05:15:52;;;;;;;;;;;;;;;6.83;72.57;96760.92;108860;1251;103574;-76
2023/03/23 05:18:20;;;;;;;;;;;;;;;6.96;72.36;96760.70;108912;1251;101401;-75
2023/03/23 05:20:48;;;;;;;;;;;;;;;7.05;72.26;96766.19;108877;1251;99892;-75
2023/03/23 05:23:16;;;;;;;;;;;;;;;7.14;72.13;96774.05;108862;1251;96690;-75
2023/03/23 05:25:47;;;;;;;;;;;;;;;7.25;72.00;96773.19;108661;1254;95958;-75
2023/03/23 05:28:15;;;;;;;;;;;;;;;7.34;71.91;96769.40;108941;1251;102615;-74
2023/03/23 05:30:44;;;;;;;;;;;;;;;7.43;71.68;96764.48;108928;1251;101500;-74
2023/03/23 05:33:11;;;;;;;;;;;;;;;7.52;71.57;96763.07;108869;1251;99428;-75
2023/03/23 05:35:40;;;;;;;;;;;;;;;7.60;71.43;96766.25;108844;1251;95545;-74
2023/03/23 05:38:08;;;;;;;;;;;;;;;7.70;71.27;96776.52;108880;1251;95826;-74
2023/03/23 05:40:35;;;;;;;;;;;;;;;7.79;71.12;96769.57;108911;1251;102633;-74
2023/03/23 05:43:03;;;;;;;;;;;;;;;7.86;71.04;96765.34;108926;1251;101684;-76
2023/03/23 05:45:31;;;;;;;;;;;;;;;7.94;70.97;96770.95;108846;1251;100165;-74
2023/03/23 05:47:59;;;;;;;;;;;;;;;8.02;70.81;96770.17;108907;1251;95967;-75
2023/03/23 05:50:27;;;;;;;;;;;;;;;8.09;70.80;96771.70;108867;1251;95657;-75
2023/03/23 05:52:57;;;;;;;;;;;;;;;8.17;70.62;96773.98;108914;1250;103995;-74
2023/03/23 05:55:25;;;;;;;;;;;;;;;8.25;70.68;96773.38;108862;1253;101003;-75
2023/03/23 05:57:53;;;;;;;;;;;;;;;8.33;70.46;96769.29;108870;1251;100305;-74
2023/03/23 06:00:23;;;;;;;;;;;;;;;8.41;70.31;96775.14;108849;1251;95607;-74
2023/03/23 06:02:51;;;;;;;;;;;;;;;8.51;70.17;96776.75;108941;1251;95652;-75
2023/03/23 06:05:19;;;;;;;;;;;;;;;8.60;69.83;96777.99;108920;1251;103702;-75
2023/03/23 06:07:47;;;;;;;;;;;;;;;8.68;69.82;96770.80;108945;1250;101510;-75
2023/03/23 06:10:16;;;;;;;;;;;;;;;8.76;69.60;96767.36;108862;1251;100067;-75
2023/03/23 06:12:44;;;;;;;;;;;;;;;8.83;69.44;96760.64;108634;1256;95619;-75
2023/03/23 06:15:13;;;;;;;;;;;;;;;8.91;69.35;96757.00;108908;1251;95584;-76
2023/03/23 06:17:41;;;;;;;;;;;;;;;8.99;69.18;96757.94;108701;1251;102379;-76
2023/03/23 06:20:09;;;;;;;;;;;;;;;9.08;68.85;96759.92;108646;1251;100458;-75
2023/03/23 06:22:39;;;;;;;;;;;;;;;9.17;68.63;96764.36;108877;1251;99639;-76
2023/03/23 06:25:08;;;;;;;;;;;;;;;9.27;68.26;96765.83;108892;1251;95806;-75
2023/03/23 06:27:36;;;;;;;;;;;;;;;9.35;67.96;96760.17;108693;1251;95629;-76
2023/03/23 06:30:05;;;;;;;;;;;;;;;9.43;67.71;96757.99;108930;1250;104120;-79
2023/03/23 06:32:34;;;;;;;;;;;;;;;9.51;67.51;96758.06;108711;1251;101338;-75
2023/03/23 06:35:03;;;;;;;;;;;;;;;9.59;67.28;96759.89;108891;1251;99952;-75
2023/03/23 06:37:31;;;;;;;;;;;;;;;9.67;67.19;96757.77;108920;1251;95570;-77
2023/03/23 06:40:00;;;;;;;;;;;;;;;9.76;66.96;96763.71;108842;1251;95580;-75
2023/03/23 06:42:28;;;;;;;;;;;;;;;9.85;66.91;96762.56;108879;1250;103512;-76
2023/03/23 06:44:57;;;;;;;;;;;;;;;9.92;66.65;96758.70;108909;1251;102053;-75
2023/03/23 06:47:26;;;;;;;;;;;;;;;10.01;66.39;96760.33;108853;1251;99914;-77
2023/03/23 06:49:54;;;;;;;;;;;;;;;10.11;66.28;96767.31;108891;1251;95974;-76
2023/03/23 06:52:22;;;;;;;;;;;;;;;10.20;66.03;96772.74;108686;1251;95922;-76
2023/03/23 06:54:51;;;;;;;;;;;;;;;10.29;65.82;96768.21;108878;1251;102674;-76
2023/03/23 06:57:19;;;;;;;;;;;;;;;10.39;65.59;96763.86;108917;1251;101692;-77
2023/03/23 06:59:47;;;;;;;;;;;;;;;10.50;65.32;96763.58;108923;1251;99861;-76
2023/03/23 07:02:15;;;;;;;;;;;;;;;10.63;65.34;96760.84;108847;1251;95917;-76
2023/03/23 07:04:45;;;;;;;;;;;;;;;10.81;65.08;96759.86;108868;1251;95551;-75
2023/03/23 07:07:14;;;;;;;;;;;;;;;11.00;64.91;96758.42;108864;1251;102062;-76
2023/03/23 07:09:42;;;;;;;;;;;;;;;11.19;64.62;96762.92;108910;1251;101754;-76
2023/03/23 07:12:10;;;;;;;;;;;;;;;11.37;64.40;96764.15;108835;1251;99779;-75
2023/03/23 07:14:38;;;;;;;;;;;;;;;11.56;64.22;96762.96;108700;1251;95689;-75
2023/03/23 07:17:07;;;;;;;;;;;;;;;11.73;63.97;96766.02;108872;1251;95609;-77
2023/03/23 07:19:35;;;;;;;;;;;;;;;11.86;63.63;96764.40;108974;1251;103673;-76
2023/03/23 07:22:05;;;;;;;;;;;;;;;11.99;63.23;96763.46;108705;1251;109493;-77
2023/03/23 07:24:34;;;;;;;;;;;;;;;12.10;63.03;96764.91;108868;1251;100049;-75
2023/03/23 07:27:02;;;;;;;;;;;;;;;12.23;62.63;96769.09;108862;1251;95534;-76
2023/03/23 07:29:30;;;;;;;;;;;;;;;12.37;62.37;96776.75;108874;1251;95570;-77
2023/03/23 07:31:58;;;;;;;;;;;;;;;12.48;62.01;96777.39;108942;1251;103627;-76
2023/03/23 07:34:26;;;;;;;;;;;;;;;12.59;61.76;96771.59;108890;1250;101471;-75
2023/03/23 07:36:55;;;;;;;;;;;;;;;12.71;61.53;96767.23;108878;1251;99883;-76
2023/03/23 07:39:24;;;;;;;;;;;;;;;12.81;61.17;96769.34;108883;1251;95488;-76
2023/03/23 07:41:52;;;;;;;;;;;;;;;12.94;61.00;96770.07;108967;1251;95891;-75
2023/03/23 07:44:20;;;;;;;;;;;;;;;13.09;60.73;96762.57;108894;1251;103477;-75
2023/03/23 07:46:48;;;;;;;;;;;;;;;13.29;60.53;96763.71;108924;1250;100119;-75
2023/03/23 07:49:17;;;;;;;;;;;;;;;13.49;60.18;96765.64;108852;1251;99890;-76
2023/03/23 07:51:46;;;;;;;;;;;;;;;13.62;59.83;96765.14;108879;1251;95897;-76
2023/03/23 07:54:14;;;;;;;;;;;;;;;13.82;59.48;96763.08;108733;1251;96256;-75
2023/03/23 07:56:44;;;;;;;;;;;;;;;14.00;59.01;96761.58;108958;1251;103535;-76
2023/03/23 07:59:13;;;;;;;;;;;;;;;14.17;58.64;96755.85;108933;1251;100129;-76
2023/03/23 08:01:41;;;;;;;;;;;;;;;14.28;58.30;96750.79;108708;1251;240533;-77
2023/03/23 08:04:09;;;;;;;;;;;;;;;14.35;57.93;96744.16;108868;1251;95855;-76
2023/03/23 08:06:39;;;;;;;;;;;;;;;14.41;57.80;96737.58;108934;1251;95600;-76
2023/03/23 08:09:08;;;;;;;;;;;;;;;14.46;57.64;96740.88;108745;1251;103451;-75
2023/03/23 08:11:37;;;;;;;;;;;;;;;14.51;57.07;96735.98;108921;1251;101687;-76
2023/03/23 08:14:05;;;;;;;;;;;;;;;14.56;56.96;96738.33;108873;1251;99629;-76
2023/03/23 08:16:34;;;;;;;;;;;;;;;14.65;56.69;96738.33;108895;1251;95533;-76
2023/03/23 08:19:02;;;;;;;;;;;;;;;14.72;56.52;96737.93;108926;1251;95600;-76
2023/03/23 08:21:30;;;;;;;;;;;;;;;14.83;56.45;96743.48;109000;1252;104399;-76
2023/03/23 08:23:58;;;;;;;;;;;;;;;14.97;56.34;96739.95;108987;1250;101244;-75
2023/03/23 08:26:27;;;;;;;;;;;;;;;15.18;55.87;96735.11;108935;1251;98895;-76
2023/03/23 08:28:55;;;;;;;;;;;;;;;15.42;55.67;96739.98;108959;1251;95597;-77
2023/03/23 08:31:23;;;;;;;;;;;;;;;15.59;54.93;96737.09;108957;1251;95612;-77
2023/03/23 08:33:51;;;;;;;;;;;;;;;15.72;54.13;96742.55;108901;1251;112312;-78
2023/03/23 08:36:19;;;;;;;;;;;;;;;15.90;53.66;96744.00;108949;1251;101319;-76
2023/03/23 08:38:47;;;;;;;;;;;;;;;16.04;53.01;96745.88;108884;1251;99901;-76
2023/03/23 08:41:15;;;;;;;;;;;;;;;16.14;52.55;96751.45;108684;1251;95591;-77
2023/03/23 08:43:44;;;;;;;;;;;;;;;16.29;52.23;96754.05;108979;1251;95587;-77
2023/03/23 08:46:12;;;;;;;;;;;;;;;16.50;51.98;96751.98;108913;1251;103647;-75
2023/03/23 08:48:41;;;;;;;;;;;;;;;16.71;51.68;96748.73;108960;1251;100413;-76
2023/03/23 08:51:09;;;;;;;;;;;;;;;16.82;51.33;96747.27;108932;1251;99996;-76
2023/03/23 08:53:37;;;;;;;;;;;;;;;16.82;50.95;96748.25;108923;1251;95574;-76
2023/03/23 08:56:06;;;;;;;;;;;;;;;16.77;50.79;96746.91;108959;1251;95623;-75
2023/03/23 08:58:38;;;;;;;;;;;;;;;16.70;50.61;96744.39;108678;1251;103583;-76
2023/03/23 09:01:07;;;;;;;;;;;;;;;16.65;50.60;96743.92;109006;1250;101055;-76
2023/03/23 09:03:35;;;;;;;;;;;;;;;16.60;50.61;96746.98;108914;1251;100247;-76
2023/03/23 09:06:05;;;;;;;;;;;;;;;16.53;50.48;96749.08;108834;1251;95510;-76
2023/03/23 09:08:35;;;;;;;;;;;;;;;16.46;50.40;96749.41;108961;1251;95848;-77
2023/03/23 09:11:04;;;;;;;;;;;;;;;16.42;50.43;96747.20;108913;1251;112124;-76
2023/03/23 09:13:32;;;;;;;;;;;;;;;16.39;50.34;96747.41;108923;1250;100002;-76
2023/03/23 09:16:00;;;;;;;;;;;;;;;16.34;50.10;96747.81;108695;1251;99639;-76
2023/03/23 09:18:28;;;;;;;;;;;;;;;16.30;50.17;96751.66;108870;1251;95545;-77
2023/03/23 09:20:57;;;;;;;;;;;;;;;16.32;50.29;96757.66;108964;1251;95606;-76
2023/03/23 09:23:25;;;;;;;;;;;;;;;16.34;50.15;96753.48;108922;1250;103726;-76
2023/03/23 09:25:53;;;;;;;;;;;;;;;16.39;49.95;96753.14;108893;1250;101661;-76
2023/03/23 09:28:21;;;;;;;;;;;;;;;16.45;49.61;96751.58;108936;1251;97804;-75
2023/03/23 09:30:51;;;;;;;;;;;;;;;16.49;49.43;96750.84;108654;1253;95568;-78
2023/03/23 09:33:19;;;;;;;;;;;;;;;16.47;49.17;96745.93;108959;1251;96195;-75
2023/03/23 09:35:47;;;;;;;;;;;;;;;16.48;48.93;96749.36;108958;1251;103609;-75
2023/03/23 09:38:15;;;;;;;;;;;;;;;16.45;48.58;96742.15;108937;1251;101364;-76
2023/03/23 09:40:49;;;;;;;;;;;;;;;16.45;48.43;96742.37;108979;1251;99917;-75
2023/03/23 09:43:35;;;;;;;;;;;;;;;16.46;48.45;96742.38;108950;1251;95521;-75
2023/03/23 09:46:07;;;;;;;;;;;;;;;16.52;48.46;96741.48;108947;1251;95579;-76
2023/03/23 09:48:48;;;;;;;;;;;;;;;16.54;47.89;96747.44;108767;1251;102489;-75
2023/03/23 09:51:22;;;;;;;;;;;;;;;16.50;47.62;96738.92;108941;1251;101221;-75
2023/03/23 09:53:52;;;;;;;;;;;;;;;16.50;47.72;96739.85;108845;1251;100121;-75
2023/03/23 09:56:22;;;;;;;;;;;;;;;16.48;47.40;96742.39;108857;1253;95504;-75
2023/03/23 09:58:50;;;;;;;;;;;;;;;16.48;47.00;96730.73;108628;1251;96050;-75
2023/03/23 10:01:33;;;;;;;;;;;;;;;16.56;47.30;96723.63;108890;1251;103402;-77
2023/03/23 10:04:08;;;;;;;;;;;;;;;16.70;47.41;96718.32;108970;1250;101411;-74
2023/03/23 10:06:36;;;;;;;;;;;;;;;16.88;47.50;96713.81;108899;1251;101953;-75
2023/03/23 10:09:05;;;;;;;;;;;;;;;17.09;47.08;96706.13;108915;1251;95525;-75
2023/03/23 10:11:42;;;;;;;;;;;;;;;17.24;46.45;96706.80;108838;1252;96014;-74
2023/03/23 10:14:16;;;;;;;;;;;;;;;17.28;46.13;96708.33;108890;1250;102803;-75
2023/03/23 10:16:52;;;;;;;;;;;;;;;17.39;46.11;96715.71;108938;1251;101048;-76
2023/03/23 10:19:35;;;;;;;;;;;;;;;17.61;45.75;96713.18;108905;1251;100391;-75
2023/03/23 10:22:06;;;;;;;;;;;;;;;17.96;45.56;96704.45;108925;1251;95522;-76
2023/03/23 10:24:42;;;;;;;;;;;;;;;18.17;45.13;96701.90;108925;1251;96461;-76
2023/03/23 10:27:28;;;;;;;;;;;;;;;18.25;44.64;96702.48;108897;1250;103241;-74
2023/03/23 10:30:17;;;;;;;;;;;;;;;18.25;44.44;96697.98;108940;1251;101539;-75
2023/03/23 10:32:53;;;;;;;;;;;;;;;18.17;44.33;96698.89;108214;1259;99616;-75
2023/03/23 10:35:26;;;;;;;;;;;;;;;18.00;43.77;96706.02;108092;1259;95649;-75
2023/03/23 10:37:58;;;;;;;;;;;;;;;17.88;43.66;96711.01;108277;1259;95774;-75
2023/03/23 10:40:29;;;;;;;;;;;;;;;17.79;43.70;96710.89;108337;1259;103411;-75
2023/03/23 10:42:58;;;;;;;;;;;;;;;17.72;43.76;96709.38;108270;1259;101252;-75
2023/03/23 10:45:29;;;;;;;;;;;;;;;17.80;43.79;96707.74;108245;1259;100269;-75
2023/03/23 10:48:00;;;;;;;;;;;;;;;18.07;43.54;96711.36;108138;1259;95908;-75
2023/03/23 10:50:31;;;;;;;;;;;;;;;18.45;43.29;96707.23;108288;1259;96402;-75
2023/03/23 10:53:00;;;;;;;;;;;;;;;18.86;42.87;96704.20;108158;1259;103043;-76
2023/03/23 10:55:39;;;;;;;;;;;;;;;19.24;42.10;96704.95;108275;1259;101252;-74
2023/03/23 10:58:10;;;;;;;;;;;;;;;19.52;41.36;96700.96;108116;1259;100026;-74
2023/03/23 11:00:44;;;;;;;;;;;;;;;19.80;40.77;96697.56;108315;1259;95619;-75
2023/03/23 11:03:15;;;;;;;;;;;;;;;20.12;40.44;96688.67;108143;1259;95839;-75
2023/03/23 11:05:51;;;;;;;;;;;;;;;20.49;40.49;96691.96;108293;1259;103467;-76
2023/03/23 11:08:23;;;;;;;;;;;;;;;20.77;39.35;96695.91;108248;1259;101237;-75
2023/03/23 11:10:53;;;;;;;;;;;;;;;20.87;38.85;96685.67;108707;1254;100056;-75
2023/03/23 11:13:23;;;;;;;;;;;;;;;21.02;38.80;96680.00;108754;1252;95602;-75
2023/03/23 11:15:54;;;;;;;;;;;;;;;21.13;38.20;96663.81;108489;1251;95696;-75
2023/03/23 11:18:24;;;;;;;;;;;;;;;21.17;37.16;96659.85;108696;1251;103177;-74
2023/03/23 11:20:57;;;;;;;;;;;;;;;21.18;37.18;96661.51;108976;1250;101247;-75
2023/03/23 11:23:28;;;;;;;;;;;;;;;21.14;37.03;96670.17;108902;1251;100089;-75
2023/03/23 11:26:03;;;;;;;;;;;;;;;20.99;36.81;96670.76;108893;1251;95546;-75
2023/03/23 11:28:35;;;;;;;;;;;;;;;20.67;36.16;96675.08;108942;1251;95573;-75
2023/03/23 11:31:05;;;;;;;;;;;;;;;20.24;36.30;96678.08;108884;1255;103492;-76
2023/03/23 11:33:40;;;;;;;;;;;;;;;19.95;36.95;96680.66;108932;1250;101422;-75
2023/03/23 11:36:09;;;;;;;;;;;;;;;19.72;37.29;96677.98;108906;1251;100053;-75
2023/03/23 11:38:38;;;;;;;;;;;;;;;19.57;37.56;96678.39;108654;1254;97249;-74
2023/03/23 11:41:10;;;;;;;;;;;;;;;19.61;38.36;96676.60;108879;1251;96404;-75
2023/03/23 11:43:44;;;;;;;;;;;;;;;19.85;38.49;96671.02;108954;1251;103587;-76
2023/03/23 11:46:22;;;;;;;;;;;;;;;20.11;38.14;96674.15;108995;1250;101695;-75
2023/03/23 11:48:58;;;;;;;;;;;;;;;20.38;38.13;96664.13;108944;1251;100073;-76
2023/03/23 11:51:42;;;;;;;;;;;;;;;20.63;37.87;96653.36;108890;1251;95897;-74
2023/03/23 11:54:18;;;;;;;;;;;;;;;20.89;37.44;96648.80;108962;1251;96471;-74
2023/03/23 11:56:47;;;;;;;;;;;;;;;21.19;37.03;96637.95;108923;1251;103669;-74
2023/03/23 11:59:27;;;;;;;;;;;;;;;21.39;37.15;96638.14;108948;1251;100377;-74
2023/03/23 12:01:58;;;;;;;;;;;;;;;21.54;36.83;96646.42;108897;1251;100079;-75
2023/03/23 12:04:44;;;;;;;;;;;;;;;21.63;36.10;96644.44;108574;1252;95551;-77
2023/03/23 12:07:31;;;;;;;;;;;;;;;21.73;35.76;96639.44;108917;1251;95744;-75
2023/03/23 12:10:15;;;;;;;;;;;;;;;21.93;35.54;96629.70;108894;1250;103674;-76
2023/03/23 12:13:06;;;;;;;;;;;;;;;22.16;35.32;96627.98;108680;1251;100339;-76
2023/03/23 12:15:37;;;;;;;;;;;;;;;22.31;35.15;96628.17;108855;1251;99698;-75
2023/03/23 12:18:24;;;;;;;;;;;;;;;22.46;34.77;96619.56;108895;1251;95488;-76
2023/03/23 12:21:15;;;;;;;;;;;;;;;22.54;34.41;96620.84;108647;1252;95895;-75
2023/03/23 12:24:03;;;;;;;;;;;;;;;22.74;34.41;96617.98;108646;1251;103266;-75
2023/03/23 12:26:33;;;;;;;;;;;;;;;22.97;34.34;96613.77;108916;1251;101198;-76
2023/03/23 12:29:09;;;;;;;;;;;;;;;23.00;34.13;96608.96;108906;1251;99890;-75
2023/03/23 12:31:40;;;;;;;;;;;;;;;22.75;33.70;96609.56;108924;1251;95533;-74
2023/03/23 12:34:23;;;;;;;;;;;;;;;22.55;33.91;96603.92;108912;1251;95607;-75
2023/03/23 12:37:02;;;;;;;;;;;;;;;22.46;33.94;96595.33;108693;1251;103793;-75
2023/03/23 12:39:48;;;;;;;;;;;;;;;22.52;33.96;96597.66;108907;1251;101635;-75
2023/03/23 12:42:23;;;;;;;;;;;;;;;22.76;33.88;96605.75;108669;1251;99875;-76
2023/03/23 12:44:55;;;;;;;;;;;;;;;22.97;33.18;96597.33;108890;1251;95492;-77
2023/03/23 12:47:36;;;;;;;;;;;;;;;23.17;32.89;96591.73;108894;1252;96451;-75
2023/03/23 12:50:08;;;;;;;;;;;;;;;23.29;32.53;96596.34;108928;1251;102137;-76
2023/03/23 12:52:45;;;;;;;;;;;;;;;23.41;32.51;96592.14;108956;1251;101610;-75
2023/03/23 12:55:14;;;;;;;;;;;;;;;23.59;32.45;96592.04;108845;1251;99786;-75
2023/03/23 12:57:46;;;;;;;;;;;;;;;23.69;31.91;96593.42;108925;1251;95509;-76